createdAt,value
2018-12-19T00:07:31.544Z,965
2018-12-19T00:17:34.954Z,964.8
2018-12-19T00:27:38.344Z,964.8
2018-12-19T00:37:41.741Z,964.9
2018-12-19T00:47:45.146Z,964.7
2018-12-19T00:57:48.570Z,964.7
2018-12-19T01:07:51.965Z,964.9
2018-12-19T01:17:55.378Z,965
2018-12-19T01:27:58.779Z,964.9
2018-12-19T01:38:02.221Z,964.8
2018-12-19T01:48:05.629Z,965
2018-12-19T01:58:09.028Z,964.6
2018-12-19T02:08:12.439Z,964.8
2018-12-19T02:18:15.837Z,964.5
2018-12-19T02:28:19.236Z,964.3
2018-12-19T02:38:22.674Z,964.3
2018-12-19T02:48:27.103Z,964.1
2018-12-19T02:58:30.522Z,964
2018-12-19T03:08:33.960Z,964
2018-12-19T03:18:37.392Z,963.9
2018-12-19T03:28:40.844Z,963.8
2018-12-19T03:38:44.288Z,964.1
2018-12-19T03:48:47.687Z,963.7
2018-12-19T03:58:51.108Z,963.6
2018-12-19T04:08:54.502Z,963.6
2018-12-19T04:18:57.952Z,963.6
2018-12-19T04:29:02.430Z,963.6
2018-12-19T04:39:05.855Z,963.5
2018-12-19T04:49:09.292Z,963.4
2018-12-19T04:59:12.751Z,963.6
2018-12-19T05:09:16.192Z,963.2
2018-12-19T05:19:19.594Z,963.3
2018-12-19T05:29:23.016Z,963
2018-12-19T05:39:26.428Z,963.3
2018-12-19T05:49:29.835Z,963.9
2018-12-19T05:59:33.216Z,963.3
2018-12-19T06:09:36.651Z,963.8
2018-12-19T06:19:40.137Z,963.4
2018-12-19T06:29:43.590Z,963.3
2018-12-19T06:39:47.093Z,963.8
2018-12-19T06:49:50.527Z,963.8
2018-12-19T06:59:53.969Z,963.3
2018-12-19T07:09:57.382Z,963.5
2018-12-19T07:20:00.813Z,963.3
2018-12-19T07:30:04.213Z,963.4
2018-12-19T07:40:07.658Z,963.1
2018-12-19T07:50:11.088Z,963.6
2018-12-19T08:00:14.509Z,963.1
2018-12-19T08:10:17.930Z,963.3
2018-12-19T08:20:21.362Z,963.7
2018-12-19T08:30:24.791Z,963.4
2018-12-19T08:40:28.237Z,963.4
2018-12-19T08:50:31.637Z,963.9
2018-12-19T09:00:35.079Z,963.3
2018-12-19T09:10:38.482Z,963.4
2018-12-19T09:20:41.880Z,963
2018-12-19T09:30:45.273Z,963
2018-12-19T09:40:48.666Z,962.8
2018-12-19T09:50:52.090Z,962.6
2018-12-19T10:00:55.487Z,962.6
2018-12-19T10:10:58.880Z,962.8
2018-12-19T10:21:02.290Z,962.4
2018-12-19T10:31:05.677Z,962
2018-12-19T10:41:09.112Z,961.9
2018-12-19T10:51:12.533Z,961.9
2018-12-19T11:01:15.959Z,961.7
2018-12-19T11:11:19.393Z,961.3
2018-12-19T11:21:22.800Z,961.3
2018-12-19T11:31:26.217Z,961.2
2018-12-19T11:41:29.631Z,961.3
2018-12-19T11:51:33.046Z,961.1
2018-12-19T12:01:41.936Z,961.2
2018-12-19T12:11:46.177Z,961
2018-12-19T12:21:49.605Z,960.4
2018-12-19T12:31:53.056Z,960.3
2018-12-19T12:41:56.507Z,959.8
2018-12-19T12:51:59.907Z,959.7
2018-12-19T13:02:03.336Z,959.5
2018-12-19T13:12:06.746Z,959.2
2018-12-19T13:22:10.147Z,959
2018-12-19T13:32:13.543Z,958.4
2018-12-19T13:42:16.952Z,958.6
2018-12-19T13:52:20.382Z,958.3
2018-12-19T14:02:23.773Z,965.3
2018-12-19T14:12:27.253Z,958.1
2018-12-19T14:22:30.691Z,965.5
2018-12-19T14:32:34.122Z,958.1
2018-12-19T14:42:37.530Z,965.3
2018-12-19T14:52:40.924Z,958
2018-12-19T15:02:44.356Z,958.5
2018-12-19T15:12:47.792Z,958.4
2018-12-19T15:22:51.236Z,958.4
2018-12-19T15:32:54.639Z,958.4
2018-12-19T15:42:58.029Z,958.5
2018-12-19T15:53:01.453Z,958.6
2018-12-19T16:03:04.898Z,958.8
2018-12-19T16:13:08.325Z,959.1
2018-12-19T16:23:11.777Z,958.9
2018-12-19T16:33:15.194Z,959.3
2018-12-19T16:43:18.587Z,959.5
2018-12-19T16:53:22.015Z,959.3
2018-12-19T17:03:25.450Z,959.4
2018-12-19T17:13:28.842Z,960.4
2018-12-19T17:23:32.248Z,960.6
2018-12-19T17:33:35.727Z,960.7
2018-12-19T17:43:39.212Z,960.4
2018-12-19T17:53:42.605Z,960
2018-12-19T18:03:46.008Z,960
2018-12-19T18:13:49.441Z,960
2018-12-19T18:23:52.964Z,959.7
2018-12-19T18:33:56.358Z,959.6
2018-12-19T18:43:59.737Z,959.9
2018-12-19T18:54:03.149Z,959.3
2018-12-19T19:04:06.600Z,959.2
2018-12-19T19:14:10.039Z,959.2
2018-12-19T19:24:13.449Z,959.1
2018-12-19T19:34:16.867Z,959.3
2018-12-19T19:44:20.299Z,959
2018-12-19T19:54:23.719Z,958.9
2018-12-19T20:04:27.157Z,966.4
2018-12-19T20:14:30.580Z,966.4
2018-12-19T20:24:34.004Z,966.3
2018-12-19T20:34:37.397Z,966.2
2018-12-19T20:44:40.840Z,966.1
2018-12-19T20:54:44.330Z,965.7
2018-12-19T21:04:47.792Z,966
2018-12-19T21:14:52.209Z,966.2
2018-12-19T21:24:55.611Z,966.3
2018-12-19T21:34:59.040Z,958.9
2018-12-19T21:45:02.459Z,966.4
2018-12-19T21:55:05.909Z,966.4
2018-12-19T22:05:09.434Z,966.4
2018-12-19T22:15:12.982Z,966.4
2018-12-19T22:25:16.517Z,966.3
2018-12-19T22:35:20.049Z,966
2018-12-19T22:45:24.735Z,966.2
2018-12-19T22:55:28.206Z,966.2
2018-12-19T23:05:31.767Z,966
2018-12-19T23:15:35.391Z,966.1
2018-12-19T23:25:38.985Z,966.2
2018-12-19T23:35:42.543Z,966
2018-12-19T23:45:46.283Z,966.3
2018-12-19T23:55:49.766Z,966.4
